createdAt,value
2024-01-22T00:01:17.359Z,13.13
2024-01-22T00:06:19.398Z,17.30
2024-01-22T00:11:21.815Z,11.68
2024-01-22T00:16:27.303Z,23.98
2024-01-22T00:21:29.173Z,26.98
2024-01-22T00:26:31.119Z,14.60
2024-01-22T00:31:33.233Z,20.00
2024-01-22T00:36:35.234Z,24.02
2024-01-22T00:41:37.295Z,47.80
2024-01-22T00:46:39.328Z,33.03
2024-01-22T00:51:41.247Z,32.65
2024-01-22T00:56:43.511Z,41.40
2024-01-22T01:01:45.440Z,43.65
2024-01-22T01:06:47.329Z,38.88
2024-01-22T01:11:49.248Z,52.65
2024-01-22T01:16:51.144Z,42.60
2024-01-22T01:21:53.035Z,44.88
2024-01-22T01:26:55.020Z,57.22
2024-01-22T01:31:56.957Z,33.20
2024-01-22T01:36:59.065Z,43.63
2024-01-22T01:42:01.001Z,61.95
2024-01-22T01:47:02.946Z,50.20
2024-01-22T01:52:05.286Z,42.85
2024-01-22T01:57:07.818Z,65.97
2024-01-22T02:02:09.759Z,46.63
2024-01-22T02:07:12.022Z,57.92
2024-01-22T02:12:14.593Z,57.83
2024-01-22T02:17:16.878Z,51.83
2024-01-22T02:22:19.208Z,54.50
2024-01-22T02:27:22.012Z,65.43
2024-01-22T02:32:24.085Z,69.25
2024-01-22T02:37:26.016Z,66.05
2024-01-22T02:42:27.921Z,76.28
2024-01-22T02:47:30.025Z,79.80
2024-01-22T02:52:32.056Z,62.97
2024-01-22T02:57:33.993Z,64.65
2024-01-22T03:02:36.099Z,56.75
2024-01-22T03:07:38.337Z,68.07
2024-01-22T03:12:40.249Z,57.00
2024-01-22T03:17:42.272Z,66.88
2024-01-22T03:22:44.219Z,67.93
2024-01-22T03:27:46.202Z,70.00
2024-01-22T03:32:48.303Z,78.72
2024-01-22T03:37:50.201Z,65.70
2024-01-22T03:42:52.028Z,84.55
2024-01-22T03:47:54.130Z,83.00
2024-01-22T03:52:56.055Z,84.93
2024-01-22T03:57:57.934Z,74.35
2024-01-22T04:02:59.837Z,77.80
2024-01-22T04:08:01.758Z,83.80
2024-01-22T04:13:04.278Z,97.22
2024-01-22T04:18:08.143Z,94.82
2024-01-22T04:23:10.038Z,73.28
2024-01-22T04:28:12.257Z,61.75
2024-01-22T04:33:14.686Z,62.45
2024-01-22T04:38:17.196Z,81.28
2024-01-22T04:43:22.567Z,56.72
2024-01-22T04:48:26.017Z,56.95
2024-01-22T04:53:28.005Z,55.22
2024-01-22T04:58:29.915Z,72.05
2024-01-22T05:03:31.922Z,65.80
2024-01-22T05:08:33.982Z,66.18
2024-01-22T05:13:35.870Z,61.35
2024-01-22T05:18:37.889Z,64.30
2024-01-22T05:23:40.882Z,60.17
2024-01-22T05:28:43.029Z,44.00
2024-01-22T05:33:45.079Z,52.10
2024-01-22T05:38:47.248Z,34.50
2024-01-22T05:43:49.159Z,48.53
2024-01-22T05:48:51.211Z,23.08
2024-01-22T05:53:53.214Z,25.58
2024-01-22T05:58:58.205Z,28.40
2024-01-22T06:04:01.316Z,38.85
2024-01-22T06:09:03.491Z,38.67
2024-01-22T06:14:05.462Z,44.22
2024-01-22T06:19:07.564Z,40.88
2024-01-22T06:24:09.577Z,27.65
2024-01-22T06:29:14.667Z,32.55
2024-01-22T06:34:16.944Z,40.58
2024-01-22T06:39:18.957Z,47.90
2024-01-22T06:44:20.868Z,36.70
2024-01-22T06:49:22.917Z,39.97
2024-01-22T06:54:25.280Z,54.00
2024-01-22T06:59:27.273Z,45.13
2024-01-22T07:04:29.430Z,34.55
2024-01-22T07:09:31.334Z,51.63
2024-01-22T07:14:33.241Z,24.20
2024-01-22T07:19:35.296Z,27.67
2024-01-22T07:24:37.558Z,45.75
2024-01-22T07:29:39.616Z,43.65
2024-01-22T07:34:41.668Z,31.63
2024-01-22T07:39:43.608Z,42.75
2024-01-22T07:44:46.020Z,35.47
2024-01-22T07:49:48.191Z,48.20
2024-01-22T07:54:50.056Z,28.63
2024-01-22T07:59:54.450Z,43.90
2024-01-22T08:04:56.354Z,36.38
2024-01-22T08:09:58.259Z,32.83
2024-01-22T08:15:00.152Z,38.08
2024-01-22T08:20:02.172Z,28.15
2024-01-22T08:25:04.803Z,56.60
2024-01-22T08:30:08.055Z,40.90
2024-01-22T08:35:10.914Z,44.25
2024-01-22T08:40:13.532Z,43.63
2024-01-22T08:45:15.548Z,50.47
2024-01-22T08:50:22.749Z,41.60
2024-01-22T08:55:25.265Z,40.42
2024-01-22T09:00:27.611Z,46.85
2024-01-22T09:05:29.928Z,46.15
2024-01-22T09:10:32.533Z,39.97
2024-01-22T09:15:34.451Z,40.70
2024-01-22T09:20:36.540Z,42.25
2024-01-22T09:25:40.948Z,56.25
2024-01-22T09:30:43.080Z,53.75
2024-01-22T09:35:45.005Z,58.10
2024-01-22T09:40:49.758Z,29.85
2024-01-22T09:45:51.913Z,34.17
2024-01-22T09:50:54.850Z,37.67
2024-01-22T09:55:57.677Z,32.35
2024-01-22T10:01:00.198Z,26.08
2024-01-22T10:06:02.270Z,29.48
2024-01-22T10:11:04.945Z,25.67
2024-01-22T10:16:11.283Z,19.88
2024-01-22T10:21:13.255Z,29.95
2024-01-22T10:26:16.775Z,18.25
2024-01-22T10:31:18.793Z,20.35
2024-01-22T10:36:23.324Z,33.13
2024-01-22T10:41:25.309Z,20.83
2024-01-22T10:46:27.701Z,14.20
2024-01-22T10:51:29.858Z,18.70
2024-01-22T10:56:35.330Z,21.48
2024-01-22T11:01:37.573Z,16.35
2024-01-22T11:06:41.359Z,22.10
2024-01-22T11:11:44.407Z,26.98
2024-01-22T11:16:46.455Z,19.15
2024-01-22T11:21:48.410Z,26.05
2024-01-22T11:26:53.796Z,25.17
2024-01-22T11:31:57.592Z,25.95
2024-01-22T11:37:00.414Z,26.15
2024-01-22T11:42:17.278Z,31.05
2024-01-22T11:47:21.213Z,31.90
2024-01-22T11:52:24.252Z,26.80
2024-01-22T11:57:28.137Z,27.88
2024-01-22T12:02:30.329Z,34.17
2024-01-22T12:07:36.132Z,49.63
2024-01-22T12:12:37.934Z,30.80
2024-01-22T12:17:44.995Z,44.83
2024-01-22T12:22:47.454Z,27.83
2024-01-22T12:27:49.865Z,32.97
2024-01-22T12:32:55.634Z,22.85
2024-01-22T12:37:57.777Z,20.77
2024-01-22T12:43:00.475Z,23.95
2024-01-22T12:48:02.629Z,22.40
2024-01-22T12:53:04.949Z,25.10
2024-01-22T12:58:12.041Z,33.88
2024-01-22T13:03:14.026Z,24.98
2024-01-22T13:08:16.236Z,26.05
2024-01-22T13:13:19.780Z,26.02
2024-01-22T13:18:21.886Z,24.38
2024-01-22T13:23:23.781Z,22.77
2024-01-22T13:28:26.685Z,41.10
2024-01-22T13:33:28.806Z,42.95
2024-01-22T13:38:34.119Z,47.47
2024-01-22T13:43:35.973Z,37.53
2024-01-22T13:48:37.884Z,33.67
2024-01-22T13:53:40.044Z,31.95
2024-01-22T13:58:42.510Z,29.45
2024-01-22T14:03:44.394Z,28.38
2024-01-22T14:08:46.214Z,33.83
2024-01-22T14:13:48.131Z,24.38
2024-01-22T14:18:51.147Z,36.97
2024-01-22T14:23:54.151Z,32.50
2024-01-22T14:28:56.174Z,36.13
2024-01-22T14:33:58.295Z,35.95
2024-01-22T14:39:00.602Z,27.20
2024-01-22T14:44:02.614Z,25.77
2024-01-22T14:49:09.239Z,23.02
2024-01-22T14:54:18.185Z,22.55
2024-01-22T14:59:20.363Z,20.05
2024-01-22T15:04:22.567Z,29.05
2024-01-22T15:09:24.837Z,20.73
2024-01-22T15:14:29.715Z,24.27
2024-01-22T15:19:31.958Z,31.38
2024-01-22T15:24:34.073Z,29.05
2024-01-22T15:29:36.724Z,26.90
2024-01-22T15:34:38.852Z,28.50
2024-01-22T15:39:45.873Z,36.45
2024-01-22T15:44:49.010Z,25.10
2024-01-22T15:49:51.027Z,24.20
2024-01-22T15:54:52.891Z,36.83
2024-01-22T15:59:54.769Z,41.28
2024-01-22T16:04:56.678Z,40.83
2024-01-22T16:09:58.501Z,30.38
2024-01-22T16:15:00.541Z,36.20
2024-01-22T16:20:02.580Z,31.35
2024-01-22T16:25:06.006Z,43.80
2024-01-22T16:30:09.365Z,33.67
2024-01-22T16:35:11.428Z,34.72
2024-01-22T16:40:16.004Z,28.67
2024-01-22T16:45:18.135Z,36.30
2024-01-22T16:50:20.270Z,41.03
2024-01-22T16:55:22.919Z,26.13
2024-01-22T17:00:24.868Z,26.52
2024-01-22T17:05:28.400Z,43.30
2024-01-22T17:10:32.021Z,31.17
2024-01-22T17:15:34.120Z,32.08
2024-01-22T17:20:37.286Z,30.48
2024-01-22T17:25:40.227Z,39.53
2024-01-22T17:30:42.871Z,34.40
2024-01-22T17:35:45.234Z,69.55
2024-01-22T17:40:47.328Z,24.40
2024-01-22T17:45:49.688Z,37.05
2024-01-22T17:50:52.053Z,40.78
2024-01-22T17:55:54.047Z,25.27
2024-01-22T18:00:57.016Z,30.90
2024-01-22T18:05:59.107Z,30.20
2024-01-22T18:11:02.209Z,47.15
2024-01-22T18:16:05.521Z,29.58
2024-01-22T18:21:07.479Z,33.53
2024-01-22T18:26:09.454Z,52.03
2024-01-22T18:31:12.970Z,37.22
2024-01-22T18:36:17.956Z,25.67
2024-01-22T18:41:26.309Z,33.63
2024-01-22T18:46:28.122Z,37.95
2024-01-22T18:51:30.311Z,36.35
2024-01-22T18:56:33.879Z,35.15
2024-01-22T19:01:37.430Z,48.58
2024-01-22T19:06:42.107Z,49.22
2024-01-22T19:11:43.962Z,39.78
2024-01-22T19:16:46.875Z,25.38
2024-01-22T19:21:48.935Z,28.38
2024-01-22T19:26:50.873Z,37.60
2024-01-22T19:31:52.927Z,30.00
2024-01-22T19:36:55.111Z,31.20
2024-01-22T19:41:57.129Z,29.40
2024-01-22T19:46:59.591Z,31.65
2024-01-22T19:52:01.676Z,33.83
2024-01-22T19:57:04.973Z,37.55
2024-01-22T20:02:06.941Z,47.88
2024-01-22T20:07:09.618Z,34.13
2024-01-22T20:12:11.718Z,30.75
2024-01-22T20:17:14.810Z,45.38
2024-01-22T20:22:16.701Z,38.40
2024-01-22T20:27:19.144Z,35.13
2024-01-22T20:32:21.082Z,35.38
2024-01-22T20:37:23.009Z,49.15
2024-01-22T20:42:25.708Z,29.60
2024-01-22T20:47:29.129Z,30.50
2024-01-22T20:52:31.809Z,43.03
2024-01-22T20:57:33.693Z,33.33
2024-01-22T21:02:36.032Z,57.60
2024-01-22T21:07:40.736Z,37.28
2024-01-22T21:12:43.530Z,36.30
2024-01-22T21:17:45.533Z,41.13
2024-01-22T21:22:51.240Z,36.17
2024-01-22T21:27:53.237Z,25.30
2024-01-22T21:32:55.751Z,55.67
2024-01-22T21:37:57.967Z,50.65
2024-01-22T21:42:59.960Z,46.75
2024-01-22T21:48:02.100Z,41.95
2024-01-22T21:53:04.602Z,32.80
2024-01-22T21:58:06.526Z,34.92
2024-01-22T22:03:09.922Z,48.55
2024-01-22T22:08:12.110Z,47.65
2024-01-22T22:13:14.304Z,33.20
2024-01-22T22:18:16.601Z,34.97
2024-01-22T22:23:18.981Z,48.28
2024-01-22T22:28:20.932Z,49.47
2024-01-22T22:33:22.961Z,49.45
2024-01-22T22:38:25.059Z,65.15
2024-01-22T22:43:26.924Z,35.53
2024-01-22T22:48:29.095Z,33.25
2024-01-22T22:53:31.077Z,40.05
2024-01-22T22:58:33.014Z,32.15
2024-01-22T23:03:34.920Z,45.20
2024-01-22T23:08:36.945Z,44.08
2024-01-22T23:13:38.854Z,51.67
2024-01-22T23:18:40.850Z,36.83
2024-01-22T23:23:43.082Z,37.10
2024-01-22T23:28:44.951Z,56.42
2024-01-22T23:33:46.889Z,34.08
2024-01-22T23:38:49.953Z,47.85
2024-01-22T23:43:52.073Z,42.67
2024-01-22T23:48:54.165Z,47.17
2024-01-22T23:53:56.184Z,50.42
2024-01-22T23:58:58.428Z,48.22
